createdAt,value
2018-12-10T00:01:57.738Z,99163.16
2018-12-10T00:04:26.048Z,99161.27
2018-12-10T00:06:54.374Z,99165.53
2018-12-10T00:09:22.686Z,99167.44
2018-12-10T00:11:51.006Z,99171.28
2018-12-10T00:14:19.392Z,99165.32
2018-12-10T00:16:47.712Z,99168.27
2018-12-10T00:19:16.028Z,99169.43
2018-12-10T00:21:44.424Z,99169.64
2018-12-10T00:24:12.752Z,99173.91
2018-12-10T00:26:41.252Z,99177.95
2018-12-10T00:29:09.383Z,99177.47
2018-12-10T00:31:37.693Z,99179.31
2018-12-10T00:34:06.020Z,99183.63
2018-12-10T00:36:34.376Z,99181.67
2018-12-10T00:39:02.723Z,99181.77
2018-12-10T00:41:31.036Z,99178.70
2018-12-10T00:43:59.348Z,99181.03
2018-12-10T00:46:27.670Z,99177.98
2018-12-10T00:48:55.988Z,99179.69
2018-12-10T00:51:24.299Z,99186.66
2018-12-10T00:53:52.608Z,99185.25
2018-12-10T00:56:20.922Z,99182.78
2018-12-10T00:58:49.227Z,99186.00
2018-12-10T01:01:17.541Z,99189.95
2018-12-10T01:03:45.849Z,99187.02
2018-12-10T01:06:14.182Z,99189.42
2018-12-10T01:08:42.499Z,99193.09
2018-12-10T01:11:10.864Z,99191.55
2018-12-10T01:13:39.170Z,99195.25
2018-12-10T01:16:07.483Z,99196.95
2018-12-10T01:18:35.797Z,99195.66
2018-12-10T01:21:04.112Z,99197.20
2018-12-10T01:23:33.203Z,99195.47
2018-12-10T01:26:01.516Z,99194.63
2018-12-10T01:28:29.825Z,99195.38
2018-12-10T01:30:58.137Z,99191.44
2018-12-10T01:33:26.479Z,99195.98
2018-12-10T01:35:54.814Z,99194.48
2018-12-10T01:38:23.099Z,99196.81
2018-12-10T01:40:51.421Z,99197.71
2018-12-10T01:43:19.731Z,99200.72
2018-12-10T01:45:48.306Z,99208.59
2018-12-10T01:48:16.666Z,99212.88
2018-12-10T01:50:44.989Z,99218.56
2018-12-10T01:53:13.302Z,99219.39
2018-12-10T01:55:41.616Z,99230.00
2018-12-10T01:58:09.937Z,99238.52
2018-12-10T02:00:38.253Z,99240.48
2018-12-10T02:03:06.569Z,99241.75
2018-12-10T02:05:34.891Z,99250.22
2018-12-10T02:08:03.201Z,99251.09
2018-12-10T02:10:31.513Z,99252.63
2018-12-10T02:12:59.844Z,99257.64
2018-12-10T02:15:28.179Z,99254.49
2018-12-10T02:17:56.524Z,99262.91
2018-12-10T02:20:24.830Z,99269.47
2018-12-10T02:22:53.140Z,99275.40
2018-12-10T02:25:22.308Z,99274.42
2018-12-10T02:27:50.640Z,99278.77
2018-12-10T02:30:18.959Z,99288.86
2018-12-10T02:32:47.261Z,99287.56
2018-12-10T02:35:15.850Z,99305.59
2018-12-10T02:37:43.951Z,99301.19
2018-12-10T02:40:12.259Z,99312.93
2018-12-10T02:42:40.573Z,99321.55
2018-12-10T02:45:09.101Z,99326.67
2018-12-10T02:47:37.183Z,99327.38
2018-12-10T02:50:05.495Z,99343.00
2018-12-10T02:52:33.822Z,99344.83
2018-12-10T02:55:02.165Z,99344.51
2018-12-10T02:57:30.442Z,99353.95
2018-12-10T02:59:58.751Z,99356.52
2018-12-10T03:02:27.059Z,99369.20
2018-12-10T03:04:55.369Z,99367.63
2018-12-10T03:07:23.676Z,99370.06
2018-12-10T03:09:52.086Z,99373.39
2018-12-10T03:12:20.314Z,99381.05
2018-12-10T03:14:48.604Z,99384.19
2018-12-10T03:17:16.913Z,99392.59
2018-12-10T03:19:45.245Z,99391.86
2018-12-10T03:22:13.544Z,99401.05
2018-12-10T03:24:41.864Z,99403.88
2018-12-10T03:27:10.171Z,99406.78
2018-12-10T03:29:38.484Z,99413.42
2018-12-10T03:32:06.802Z,99414.21
2018-12-10T03:34:35.116Z,99415.63
2018-12-10T03:37:03.435Z,99420.17
2018-12-10T03:39:31.751Z,99428.09
2018-12-10T03:42:00.053Z,99427.40
2018-12-10T03:44:28.369Z,99421.31
2018-12-10T03:46:56.685Z,99432.19
2018-12-10T03:49:24.988Z,99436.30
2018-12-10T03:51:53.321Z,99448.48
2018-12-10T03:54:21.651Z,99448.45
2018-12-10T03:56:49.973Z,99449.60
2018-12-10T03:59:18.283Z,99455.73
2018-12-10T04:01:46.594Z,99464.67
2018-12-10T04:04:14.919Z,99464.83
2018-12-10T04:06:43.240Z,99470.39
2018-12-10T04:09:11.553Z,99476.72
2018-12-10T04:11:39.881Z,99473.52
2018-12-10T04:14:08.191Z,99478.55
2018-12-10T04:16:36.506Z,99475.18
2018-12-10T04:19:04.817Z,99481.66
2018-12-10T04:21:33.128Z,99492.04
2018-12-10T04:24:01.447Z,99492.19
2018-12-10T04:26:29.765Z,99493.46
2018-12-10T04:28:58.096Z,99501.19
2018-12-10T04:31:26.424Z,99495.49
2018-12-10T04:33:54.733Z,99499.78
2018-12-10T04:36:23.045Z,99504.75
2018-12-10T04:38:51.375Z,99503.30
2018-12-10T04:41:19.691Z,99510.98
2018-12-10T04:43:48.025Z,99512.11
2018-12-10T04:46:16.348Z,99512.79
2018-12-10T04:48:44.651Z,99517.50
2018-12-10T04:51:12.980Z,99521.02
2018-12-10T04:53:41.288Z,99530.05
2018-12-10T04:56:09.622Z,99532.83
2018-12-10T04:58:37.929Z,99534.77
2018-12-10T05:01:06.257Z,99538.08
2018-12-10T05:03:34.576Z,99540.39
2018-12-10T05:06:02.897Z,99539.70
2018-12-10T05:08:31.222Z,99540.23
2018-12-10T05:10:59.553Z,99550.53
2018-12-10T05:13:27.882Z,99555.38
2018-12-10T05:15:56.197Z,99558.08
2018-12-10T05:18:24.517Z,99562.27
2018-12-10T05:20:52.843Z,99571.06
2018-12-10T05:23:21.161Z,99573.14
2018-12-10T05:25:49.505Z,99576.91
2018-12-10T05:28:17.844Z,99581.09
2018-12-10T05:30:46.172Z,99586.63
2018-12-10T05:33:14.506Z,99591.34
2018-12-10T05:35:42.806Z,99597.28
2018-12-10T05:38:11.180Z,99600.05
2018-12-10T05:40:39.474Z,99601.18
2018-12-10T05:43:07.804Z,99607.35
2018-12-10T05:45:39.706Z,99605.95
2018-12-10T05:48:08.032Z,99601.66
2018-12-10T05:50:36.405Z,99605.07
2018-12-10T05:53:05.550Z,99601.92
2018-12-10T05:55:33.866Z,99609.92
2018-12-10T05:58:02.198Z,99603.23
2018-12-10T06:00:30.589Z,99605.36
2018-12-10T06:02:58.884Z,99608.44
2018-12-10T06:05:27.216Z,99617.41
2018-12-10T06:07:55.553Z,99614.42
2018-12-10T06:10:23.863Z,99620.85
2018-12-10T06:12:52.195Z,99614.42
2018-12-10T06:15:21.440Z,99624.08
2018-12-10T06:17:49.760Z,99631.37
2018-12-10T06:20:18.830Z,99632.69
2018-12-10T06:22:47.393Z,99635.42
2018-12-10T06:25:16.648Z,99641.94
2018-12-10T06:27:44.957Z,99649.28
2018-12-10T06:30:13.555Z,99644.80
2018-12-10T06:32:42.428Z,99654.95
2018-12-10T06:35:10.743Z,99647.24
2018-12-10T06:37:39.066Z,99649.45
2018-12-10T06:40:07.612Z,99657.11
2018-12-10T06:42:35.991Z,99657.63
2018-12-10T06:45:05.347Z,99669.09
2018-12-10T06:47:34.125Z,99666.28
2018-12-10T06:50:02.812Z,99675.83
2018-12-10T06:52:32.050Z,99680.28
2018-12-10T06:55:03.534Z,99683.13
2018-12-10T06:57:31.854Z,99676.44
2018-12-10T07:00:00.165Z,99690.16
2018-12-10T07:02:28.491Z,99686.45
2018-12-10T07:04:56.810Z,99695.50
2018-12-10T07:07:25.113Z,99708.56
2018-12-10T07:09:53.447Z,99707.73
2018-12-10T07:12:22.034Z,99715.64
2018-12-10T07:14:50.733Z,99715.84
2018-12-10T07:17:19.304Z,99718.80
2018-12-10T07:19:47.990Z,99723.64
2018-12-10T07:22:16.320Z,99723.42
2018-12-10T07:24:44.798Z,99729.66
2018-12-10T07:27:13.123Z,99728.77
2018-12-10T07:29:41.863Z,99734.84
2018-12-10T07:32:10.968Z,99736.80
2018-12-10T07:34:41.368Z,99733.20
2018-12-10T07:37:07.653Z,99736.05
2018-12-10T07:39:35.955Z,99734.79
2018-12-10T07:42:04.274Z,99737.83
2018-12-10T07:44:32.606Z,99741.25
2018-12-10T07:47:01.161Z,99745.67
2018-12-10T07:49:29.494Z,99751.50
2018-12-10T07:51:58.072Z,99753.57
2018-12-10T07:54:26.399Z,99756.37
2018-12-10T07:56:54.730Z,99754.81
2018-12-10T07:59:23.424Z,99761.00
2018-12-10T08:01:51.734Z,99754.46
2018-12-10T08:04:20.061Z,99756.94
2018-12-10T08:06:48.386Z,99761.75
2018-12-10T08:09:16.699Z,99763.64
2018-12-10T08:11:45.390Z,99766.55
2018-12-10T08:14:14.522Z,99769.23
2018-12-10T08:16:42.840Z,99778.91
2018-12-10T08:19:11.428Z,99779.93
2018-12-10T08:21:39.801Z,99775.53
2018-12-10T08:24:08.407Z,99782.59
2018-12-10T08:26:37.038Z,99784.04
2018-12-10T08:31:33.680Z,99801.20
2018-12-10T08:34:02.006Z,99803.80
2018-12-10T08:35:46.103Z,99786.31
2018-12-10T08:36:30.347Z,99803.19
2018-12-10T08:38:58.680Z,99821.44
2018-12-10T08:41:27.011Z,99806.81
2018-12-10T08:43:55.321Z,99810.03
2018-12-10T08:46:23.630Z,99809.75
2018-12-10T08:48:52.073Z,99817.22
2018-12-10T08:51:20.886Z,99816.06
2018-12-10T08:53:48.986Z,99829.87
2018-12-10T08:56:17.306Z,99813.81
2018-12-10T08:58:45.634Z,99817.31
2018-12-10T09:01:14.243Z,99825.66
2018-12-10T09:03:42.796Z,99821.72
2018-12-10T09:06:10.896Z,99833.20
2018-12-10T09:08:39.504Z,99832.35
2018-12-10T09:11:07.821Z,99822.30
2018-12-10T09:13:36.179Z,99822.00
2018-12-10T09:16:04.490Z,99823.42
2018-12-10T09:18:32.807Z,99831.91
2018-12-10T09:21:01.125Z,99826.36
2018-12-10T09:23:29.692Z,99824.60
2018-12-10T09:25:58.328Z,99821.02
2018-12-10T09:28:26.616Z,99825.18
2018-12-10T09:30:54.934Z,99830.27
2018-12-10T09:33:23.296Z,99834.77
2018-12-10T09:35:51.854Z,99836.62
2018-12-10T09:38:20.230Z,99840.19
2018-12-10T09:40:48.865Z,99843.48
2018-12-10T09:43:17.186Z,99834.31
2018-12-10T09:45:45.527Z,99843.97
2018-12-10T09:48:13.913Z,99844.24
2018-12-10T09:50:42.248Z,99845.70
2018-12-10T09:53:10.612Z,99850.03
2018-12-10T09:55:38.917Z,99855.33
2018-12-10T09:58:07.258Z,99854.18
2018-12-10T10:00:35.616Z,99857.31
2018-12-10T10:03:03.985Z,99851.40
2018-12-10T10:05:32.309Z,99864.78
2018-12-10T10:08:00.629Z,99883.91
2018-12-10T10:10:29.229Z,99887.71
2018-12-10T10:12:57.586Z,99899.34
2018-12-10T10:15:25.903Z,99893.22
2018-12-10T10:17:54.231Z,99896.38
2018-12-10T10:20:23.557Z,99893.34
2018-12-10T10:22:50.877Z,99899.03
2018-12-10T10:25:19.183Z,99903.19
2018-12-10T10:27:47.500Z,99908.51
2018-12-10T10:30:15.819Z,99909.56
2018-12-10T10:32:44.147Z,99908.14
2018-12-10T10:35:12.452Z,99908.87
2018-12-10T10:37:40.773Z,99912.60
2018-12-10T10:40:09.424Z,99917.33
2018-12-10T10:42:37.744Z,99915.12
2018-12-10T10:45:06.063Z,99911.89
2018-12-10T10:47:34.363Z,99917.27
2018-12-10T10:50:02.722Z,99916.72
2018-12-10T10:52:33.327Z,99913.09
2018-12-10T10:54:59.354Z,99918.22
2018-12-10T10:57:27.693Z,99909.24
2018-12-10T10:59:56.029Z,99901.89
2018-12-10T11:02:30.893Z,99904.59
2018-12-10T11:07:32.986Z,99900.75
2018-12-10T11:10:01.336Z,99903.86
2018-12-10T11:12:29.650Z,99906.52
2018-12-10T11:14:58.283Z,99906.39
2018-12-10T11:17:26.879Z,99913.88
2018-12-10T11:19:55.196Z,99897.84
2018-12-10T11:22:23.864Z,99891.95
2018-12-10T11:24:52.179Z,99900.97
2018-12-10T11:27:20.490Z,99893.41
2018-12-10T11:29:49.432Z,99903.27
2018-12-10T11:32:17.757Z,99910.81
2018-12-10T11:34:46.299Z,99898.61
2018-12-10T11:37:14.877Z,99899.05
2018-12-10T11:39:43.163Z,99910.26
2018-12-10T11:42:11.488Z,99923.63
2018-12-10T11:44:39.836Z,99917.57
2018-12-10T11:47:13.063Z,99916.27
2018-12-10T11:49:36.478Z,99917.91
2018-12-10T11:52:04.823Z,99923.26
2018-12-10T11:54:33.138Z,99921.97
2018-12-10T11:57:02.202Z,99920.18
2018-12-10T11:59:30.527Z,99923.17
2018-12-10T12:01:58.857Z,99924.12
2018-12-10T12:04:27.762Z,99919.42
2018-12-10T12:06:56.095Z,99922.06
2018-12-10T12:09:24.413Z,99922.62
2018-12-10T12:11:52.740Z,99929.14
2018-12-10T12:14:21.072Z,99927.21
2018-12-10T12:16:49.390Z,99931.91
2018-12-10T12:19:17.799Z,99933.44
2018-12-10T12:21:46.148Z,99934.70
2018-12-10T12:24:14.494Z,99933.42
2018-12-10T12:26:42.937Z,99939.95
2018-12-10T12:29:12.787Z,99944.28
2018-12-10T12:31:41.152Z,99942.73
2018-12-10T12:34:09.499Z,99939.59
2018-12-10T12:36:37.826Z,99936.45
2018-12-10T12:39:06.390Z,99937.63
2018-12-10T12:41:34.708Z,99942.89
2018-12-10T12:44:03.149Z,99945.76
2018-12-10T12:46:31.889Z,99946.77
2018-12-10T12:49:00.543Z,99952.36
2018-12-10T12:51:28.861Z,99955.86
2018-12-10T12:53:57.256Z,99988.37
2018-12-10T12:56:25.862Z,99964.52
2018-12-10T12:58:54.510Z,99967.09
2018-12-10T13:01:22.825Z,99962.09
2018-12-10T13:03:51.645Z,99953.61
2018-12-10T13:06:20.224Z,99961.21
2018-12-10T13:08:48.543Z,99962.13
2018-12-10T13:11:17.149Z,99958.00
2018-12-10T13:13:45.579Z,99956.29
2018-12-10T13:16:13.926Z,99962.38
2018-12-10T13:18:42.251Z,99974.24
2018-12-10T13:21:10.567Z,99962.84
2018-12-10T13:23:38.938Z,99966.88
2018-12-10T13:26:07.440Z,99975.38
2018-12-10T13:28:35.849Z,99974.21
2018-12-10T13:31:04.120Z,99977.19
2018-12-10T13:33:32.731Z,99977.23
2018-12-10T13:36:01.054Z,99974.59
2018-12-10T13:38:29.618Z,99970.75
2018-12-10T13:40:58.311Z,99971.85
2018-12-10T13:43:26.591Z,99975.84
2018-12-10T13:45:54.973Z,99980.21
2018-12-10T13:48:23.607Z,99980.16
2018-12-10T13:50:51.931Z,99986.38
2018-12-10T13:53:20.335Z,99984.71
2018-12-10T13:55:48.688Z,99987.70
2018-12-10T13:58:17.004Z,99988.17
2018-12-10T14:00:50.811Z,99988.73
2018-12-10T14:03:13.981Z,99993.18
2018-12-10T14:05:47.409Z,99999.61
2018-12-10T14:08:10.637Z,100002.69
2018-12-10T14:10:38.956Z,100001.15
2018-12-10T14:13:07.290Z,100002.02
2018-12-10T14:15:35.622Z,100002.69
2018-12-10T14:18:04.292Z,100002.69
2018-12-10T14:20:32.845Z,100002.83
2018-12-10T14:23:01.172Z,100002.04
2018-12-10T14:25:29.511Z,100020.86
2018-12-10T14:27:57.845Z,100001.30
2018-12-10T14:30:26.256Z,100015.53
2018-12-10T14:32:54.648Z,100004.92
2018-12-10T14:35:22.992Z,100012.73
2018-12-10T14:37:51.393Z,100014.50
2018-12-10T14:40:19.895Z,100013.46
2018-12-10T14:42:50.299Z,100023.78
2018-12-10T14:45:21.643Z,100022.34
2018-12-10T14:47:49.990Z,100023.52
2018-12-10T14:50:18.937Z,100038.59
2018-12-10T14:52:47.299Z,100028.67
2018-12-10T14:55:15.654Z,100026.45
2018-12-10T14:57:44.222Z,100030.84
2018-12-10T15:00:12.662Z,100032.16
2018-12-10T15:02:40.984Z,100039.41
2018-12-10T15:05:09.423Z,100046.26
2018-12-10T15:07:38.163Z,100051.00
2018-12-10T15:10:06.975Z,100054.00
2018-12-10T15:12:35.313Z,100049.81
2018-12-10T15:15:03.698Z,100043.74
2018-12-10T15:17:32.027Z,100056.77
2018-12-10T15:20:00.436Z,100054.88
2018-12-10T15:22:28.823Z,100050.56
2018-12-10T15:24:58.717Z,100054.80
2018-12-10T15:27:26.988Z,100059.95
2018-12-10T15:29:55.633Z,100050.56
2018-12-10T15:32:24.251Z,100050.73
2018-12-10T15:34:52.589Z,100056.72
2018-12-10T15:37:21.187Z,100046.95
2018-12-10T15:39:49.735Z,100055.00
2018-12-10T15:42:18.358Z,100062.69
2018-12-10T15:44:46.670Z,100055.31
2018-12-10T15:47:15.022Z,100060.27
2018-12-10T15:49:43.359Z,100057.50
2018-12-10T15:52:11.707Z,100062.18
2018-12-10T15:54:40.039Z,100058.43
2018-12-10T15:57:08.381Z,100065.08
2018-12-10T15:59:37.029Z,100065.98
2018-12-10T16:02:05.366Z,100072.95
2018-12-10T16:04:33.692Z,100077.20
2018-12-10T16:07:02.043Z,100081.20
2018-12-10T16:09:30.385Z,100085.42
2018-12-10T16:11:58.718Z,100086.97
2018-12-10T16:14:27.071Z,100082.05
2018-12-10T16:16:55.399Z,100094.00
2018-12-10T16:19:23.807Z,100093.31
2018-12-10T16:21:53.094Z,100085.20
2018-12-10T16:24:21.910Z,100081.98
2018-12-10T16:26:50.413Z,100094.67
2018-12-10T16:29:18.738Z,100082.66
2018-12-10T16:31:48.104Z,100104.26
2018-12-10T16:34:16.442Z,100089.34
2018-12-10T16:36:46.610Z,100092.23
2018-12-10T16:39:14.948Z,100107.74
2018-12-10T16:41:43.595Z,100102.47
2018-12-10T16:44:12.888Z,100100.58
2018-12-10T16:46:41.214Z,100099.97
2018-12-10T16:49:09.667Z,100102.94
2018-12-10T16:51:37.996Z,100103.57
2018-12-10T16:54:06.456Z,100093.45
2018-12-10T16:56:35.561Z,100090.80
2018-12-10T16:59:04.481Z,100093.06
2018-12-10T17:01:32.865Z,100102.64
2018-12-10T17:04:02.355Z,100100.61
2018-12-10T17:06:30.982Z,100094.47
2018-12-10T17:08:59.884Z,100096.11
2018-12-10T17:11:30.058Z,100101.03
2018-12-10T17:13:57.523Z,100102.98
2018-12-10T17:16:26.051Z,100094.34
2018-12-10T17:18:54.605Z,100095.47
2018-12-10T17:21:23.004Z,100102.64
2018-12-10T17:23:51.430Z,100098.36
2018-12-10T17:26:20.052Z,100096.88
2018-12-10T17:28:48.404Z,100099.35
2018-12-10T17:31:16.836Z,100104.12
2018-12-10T17:33:45.515Z,100106.17
2018-12-10T17:36:14.151Z,100109.83
2018-12-10T17:38:42.766Z,100114.59
2018-12-10T17:41:11.288Z,100112.25
2018-12-10T17:43:40.027Z,100118.48
2018-12-10T17:46:08.355Z,100123.67
2018-12-10T17:48:36.682Z,100122.59
2018-12-10T17:51:05.247Z,100124.48
2018-12-10T17:53:33.698Z,100130.90
2018-12-10T17:56:02.106Z,100132.80
2018-12-10T17:58:30.684Z,100127.52
2018-12-10T18:00:59.095Z,100128.81
2018-12-10T18:03:27.804Z,100117.63
2018-12-10T18:05:56.197Z,100105.39
2018-12-10T18:08:24.506Z,100111.42
2018-12-10T18:10:52.879Z,100109.48
2018-12-10T18:13:21.305Z,100108.27
2018-12-10T18:15:49.761Z,100115.27
2018-12-10T18:18:19.062Z,100116.84
2018-12-10T18:20:47.933Z,100112.08
2018-12-10T18:23:17.058Z,100114.93
2018-12-10T18:25:46.414Z,100108.23
2018-12-10T18:28:13.839Z,100103.81
2018-12-10T18:30:42.577Z,100115.50
2018-12-10T18:33:10.677Z,100119.27
2018-12-10T18:35:39.172Z,100121.33
2018-12-10T18:38:08.634Z,100119.38
2018-12-10T18:40:37.874Z,100113.73
2018-12-10T18:43:06.266Z,100109.95
2018-12-10T18:45:37.637Z,100112.08
2018-12-10T18:48:06.585Z,100107.03
2018-12-10T18:50:35.379Z,100107.12
2018-12-10T18:53:05.430Z,100109.96
2018-12-10T18:55:34.396Z,100105.59
2018-12-10T18:58:03.756Z,100113.14
2018-12-10T19:00:33.121Z,100098.73
2018-12-10T19:03:01.490Z,100113.75
2018-12-10T19:05:31.657Z,100110.78
2018-12-10T19:08:00.074Z,100112.58
2018-12-10T19:10:28.794Z,100110.02
2018-12-10T19:12:58.520Z,100109.52
2018-12-10T19:15:26.969Z,100113.77
2018-12-10T19:17:55.672Z,100113.06
2018-12-10T19:20:24.013Z,100115.59
2018-12-10T19:22:52.671Z,100118.33
2018-12-10T19:25:21.520Z,100119.44
2018-12-10T19:27:50.439Z,100124.38
2018-12-10T19:30:18.839Z,100124.84
2018-12-10T19:32:47.225Z,100123.53
2018-12-10T19:35:15.523Z,100128.39
2018-12-10T19:37:43.850Z,100131.38
2018-12-10T19:40:12.218Z,100128.03
2018-12-10T19:42:40.541Z,100124.84
2018-12-10T19:45:08.875Z,100124.20
2018-12-10T19:47:37.294Z,100116.13
2018-12-10T19:50:05.724Z,100116.71
2018-12-10T19:52:34.307Z,100125.20
2018-12-10T19:55:02.921Z,100108.27
2018-12-10T19:57:31.636Z,100110.01
2018-12-10T20:00:00.153Z,100121.92
2018-12-10T20:02:28.579Z,100119.59
2018-12-10T20:04:56.885Z,100115.08
2018-12-10T20:07:26.290Z,100110.88
2018-12-10T20:09:54.619Z,100116.81
2018-12-10T20:12:23.025Z,100126.19
2018-12-10T20:14:51.562Z,100119.52
2018-12-10T20:17:19.961Z,100121.30
2018-12-10T20:19:48.331Z,100122.23
2018-12-10T20:22:16.669Z,100117.66
2018-12-10T20:24:45.078Z,100113.45
2018-12-10T20:27:14.336Z,100115.73
2018-12-10T20:29:42.670Z,100120.03
2018-12-10T20:32:11.341Z,100123.83
2018-12-10T20:34:40.010Z,100118.52
2018-12-10T20:37:08.348Z,100120.94
2018-12-10T20:39:36.728Z,100115.88
2018-12-10T20:42:05.060Z,100116.11
2018-12-10T20:44:33.395Z,100123.28
2018-12-10T20:47:01.759Z,100131.14
2018-12-10T20:49:30.080Z,100129.08
2018-12-10T20:51:58.698Z,100130.53
2018-12-10T20:54:28.245Z,100133.02
2018-12-10T20:56:57.051Z,100130.59
2018-12-10T20:59:25.188Z,100133.94
2018-12-10T21:01:54.290Z,100137.07
2018-12-10T21:04:23.111Z,100131.83
2018-12-10T21:06:52.128Z,100124.00
2018-12-10T21:09:21.590Z,100127.14
2018-12-10T21:11:50.932Z,100129.03
2018-12-10T21:14:19.731Z,100121.53
2018-12-10T21:16:49.905Z,100121.55
2018-12-10T21:19:18.130Z,100127.93
2018-12-10T21:21:46.558Z,100125.23
2018-12-10T21:24:15.098Z,100129.64
2018-12-10T21:26:43.223Z,100129.88
2018-12-10T21:29:11.567Z,100133.67
2018-12-10T21:31:40.824Z,100124.28
2018-12-10T21:34:09.152Z,100122.78
2018-12-10T21:36:37.478Z,100121.99
2018-12-10T21:39:06.072Z,100120.83
2018-12-10T21:41:34.217Z,100129.98
2018-12-10T21:44:04.954Z,100120.83
2018-12-10T21:46:33.356Z,100116.56
2018-12-10T21:49:04.123Z,100129.05
2018-12-10T21:51:32.503Z,100121.42
2018-12-10T21:54:01.208Z,100136.20
2018-12-10T21:56:29.914Z,100137.20
2018-12-10T21:58:58.201Z,100126.31
2018-12-10T22:01:27.143Z,100119.08
2018-12-10T22:03:57.251Z,100130.65
2018-12-10T22:06:24.734Z,100125.78
2018-12-10T22:08:53.051Z,100121.74
2018-12-10T22:11:21.460Z,100122.97
2018-12-10T22:13:49.903Z,100135.32
2018-12-10T22:16:18.263Z,100128.70
2018-12-10T22:18:46.616Z,100128.98
2018-12-10T22:21:14.935Z,100165.06
2018-12-10T22:23:44.614Z,100127.59
2018-12-10T22:26:11.578Z,100125.77
2018-12-10T22:28:39.909Z,100139.50
2018-12-10T22:31:08.228Z,100121.63
2018-12-10T22:33:36.556Z,100126.90
2018-12-10T22:36:04.884Z,100123.39
2018-12-10T22:38:33.218Z,100123.23
2018-12-10T22:41:01.538Z,100122.02
2018-12-10T22:43:29.973Z,100113.82
2018-12-10T22:45:58.593Z,100112.60
2018-12-10T22:48:27.009Z,100117.38
2018-12-10T22:50:55.287Z,100122.39
2018-12-10T22:53:23.645Z,100118.29
2018-12-10T22:55:51.970Z,100124.52
2018-12-10T22:58:20.284Z,100126.09
2018-12-10T23:00:51.393Z,100126.86
2018-12-10T23:03:19.705Z,100135.87
2018-12-10T23:05:48.111Z,100132.91
2018-12-10T23:08:16.442Z,100135.11
2018-12-10T23:10:44.746Z,100134.03
2018-12-10T23:13:13.083Z,100137.11
2018-12-10T23:15:41.624Z,100139.48
2018-12-10T23:18:09.794Z,100139.39
2018-12-10T23:20:38.464Z,100150.15
2018-12-10T23:23:06.798Z,100162.87
2018-12-10T23:25:35.120Z,100161.35
2018-12-10T23:28:03.439Z,100156.84
2018-12-10T23:30:32.068Z,100157.11
2018-12-10T23:33:00.481Z,100148.98
2018-12-10T23:35:28.968Z,100146.05
2018-12-10T23:37:57.449Z,100150.17
2018-12-10T23:40:25.741Z,100152.77
2018-12-10T23:43:00.017Z,100157.55
2018-12-10T23:45:28.162Z,100156.42
2018-12-10T23:47:56.495Z,100165.56
2018-12-10T23:50:24.798Z,100159.83
2018-12-10T23:52:53.483Z,100168.41
2018-12-10T23:55:21.964Z,100167.39
2018-12-10T23:57:50.418Z,100171.88
